sensor_id;sensor_type;location;lat;lon;timestamp;P1;durP1;ratioP1;P2;durP2;ratioP2
31848;SDS011;18414;59.352;18.152;2023-02-12T00:01:35;4.50;;;1.87;;
31848;SDS011;18414;59.352;18.152;2023-02-12T00:04:00;3.10;;;1.90;;
31848;SDS011;18414;59.352;18.152;2023-02-12T00:06:26;3.87;;;2.10;;
31848;SDS011;18414;59.352;18.152;2023-02-12T00:08:52;5.23;;;2.00;;
31848;SDS011;18414;59.352;18.152;2023-02-12T00:11:20;7.40;;;2.00;;
31848;SDS011;18414;59.352;18.152;2023-02-12T00:13:50;4.07;;;2.10;;
31848;SDS011;18414;59.352;18.152;2023-02-12T00:16:18;4.67;;;2.23;;
31848;SDS011;18414;59.352;18.152;2023-02-12T00:18:45;5.87;;;2.27;;
31848;SDS011;18414;59.352;18.152;2023-02-12T00:21:10;5.43;;;2.10;;
31848;SDS011;18414;59.352;18.152;2023-02-12T00:23:38;6.87;;;2.47;;
31848;SDS011;18414;59.352;18.152;2023-02-12T00:26:15;3.97;;;2.40;;
31848;SDS011;18414;59.352;18.152;2023-02-12T00:28:42;4.30;;;2.13;;
31848;SDS011;18414;59.352;18.152;2023-02-12T00:31:09;8.43;;;2.43;;
31848;SDS011;18414;59.352;18.152;2023-02-12T00:33:36;4.27;;;2.33;;
31848;SDS011;18414;59.352;18.152;2023-02-12T00:36:01;4.10;;;2.20;;
31848;SDS011;18414;59.352;18.152;2023-02-12T00:38:26;4.20;;;2.30;;
31848;SDS011;18414;59.352;18.152;2023-02-12T00:40:52;4.40;;;2.40;;
31848;SDS011;18414;59.352;18.152;2023-02-12T00:43:17;5.07;;;2.00;;
31848;SDS011;18414;59.352;18.152;2023-02-12T00:45:43;6.03;;;2.37;;
31848;SDS011;18414;59.352;18.152;2023-02-12T00:48:09;4.00;;;2.20;;
31848;SDS011;18414;59.352;18.152;2023-02-12T00:50:35;5.50;;;2.50;;
31848;SDS011;18414;59.352;18.152;2023-02-12T00:53:00;3.30;;;1.70;;
31848;SDS011;18414;59.352;18.152;2023-02-12T00:55:25;7.10;;;2.50;;
31848;SDS011;18414;59.352;18.152;2023-02-12T00:57:51;4.23;;;2.30;;
31848;SDS011;18414;59.352;18.152;2023-02-12T01:00:16;3.07;;;2.10;;
31848;SDS011;18414;59.352;18.152;2023-02-12T01:02:41;5.13;;;2.40;;
31848;SDS011;18414;59.352;18.152;2023-02-12T01:05:07;4.90;;;2.40;;
31848;SDS011;18414;59.352;18.152;2023-02-12T01:07:32;5.13;;;2.60;;
31848;SDS011;18414;59.352;18.152;2023-02-12T01:09:58;3.90;;;2.23;;
31848;SDS011;18414;59.352;18.152;2023-02-12T01:12:23;5.80;;;2.40;;
31848;SDS011;18414;59.352;18.152;2023-02-12T01:14:48;6.23;;;2.37;;
31848;SDS011;18414;59.352;18.152;2023-02-12T01:17:14;5.10;;;2.00;;
31848;SDS011;18414;59.352;18.152;2023-02-12T01:19:39;3.70;;;1.97;;
31848;SDS011;18414;59.352;18.152;2023-02-12T01:22:04;4.77;;;2.10;;
31848;SDS011;18414;59.352;18.152;2023-02-12T01:24:30;7.83;;;2.40;;
31848;SDS011;18414;59.352;18.152;2023-02-12T01:26:55;4.57;;;2.07;;
31848;SDS011;18414;59.352;18.152;2023-02-12T01:29:20;5.43;;;2.13;;
31848;SDS011;18414;59.352;18.152;2023-02-12T01:31:46;4.73;;;1.87;;
31848;SDS011;18414;59.352;18.152;2023-02-12T01:34:11;4.77;;;2.07;;
31848;SDS011;18414;59.352;18.152;2023-02-12T01:36:37;6.13;;;1.53;;
31848;SDS011;18414;59.352;18.152;2023-02-12T01:39:03;2.93;;;1.40;;
31848;SDS011;18414;59.352;18.152;2023-02-12T01:41:33;3.23;;;1.50;;
31848;SDS011;18414;59.352;18.152;2023-02-12T01:44:19;7.17;;;1.70;;
31848;SDS011;18414;59.352;18.152;2023-02-12T01:46:47;2.70;;;1.50;;
31848;SDS011;18414;59.352;18.152;2023-02-12T01:49:16;4.03;;;1.50;;
31848;SDS011;18414;59.352;18.152;2023-02-12T01:51:44;3.80;;;1.67;;
31848;SDS011;18414;59.352;18.152;2023-02-12T01:54:11;1.63;;;1.23;;
31848;SDS011;18414;59.352;18.152;2023-02-12T01:56:37;4.87;;;1.60;;
31848;SDS011;18414;59.352;18.152;2023-02-12T01:59:03;4.13;;;1.60;;
31848;SDS011;18414;59.352;18.152;2023-02-12T02:01:29;4.53;;;1.60;;
31848;SDS011;18414;59.352;18.152;2023-02-12T02:03:59;3.63;;;1.87;;
31848;SDS011;18414;59.352;18.152;2023-02-12T02:06:28;4.27;;;1.63;;
31848;SDS011;18414;59.352;18.152;2023-02-12T02:08:56;2.00;;;1.20;;
31848;SDS011;18414;59.352;18.152;2023-02-12T02:11:21;2.70;;;1.33;;
31848;SDS011;18414;59.352;18.152;2023-02-12T02:14:05;2.60;;;1.67;;
31848;SDS011;18414;59.352;18.152;2023-02-12T02:16:54;3.70;;;1.70;;
31848;SDS011;18414;59.352;18.152;2023-02-12T02:25:35;2.67;;;1.30;;
31848;SDS011;18414;59.352;18.152;2023-02-12T02:39:08;2.67;;;1.40;;
31848;SDS011;18414;59.352;18.152;2023-02-12T02:44:23;5.30;;;1.33;;
31848;SDS011;18414;59.352;18.152;2023-02-12T02:46:55;3.47;;;1.40;;
31848;SDS011;18414;59.352;18.152;2023-02-12T02:49:23;3.43;;;1.40;;
31848;SDS011;18414;59.352;18.152;2023-02-12T02:51:54;2.80;;;1.50;;
31848;SDS011;18414;59.352;18.152;2023-02-12T02:54:26;4.17;;;1.50;;
31848;SDS011;18414;59.352;18.152;2023-02-12T02:56:57;2.03;;;1.30;;
31848;SDS011;18414;59.352;18.152;2023-02-12T02:59:45;2.07;;;0.93;;
31848;SDS011;18414;59.352;18.152;2023-02-12T03:04:58;4.03;;;1.43;;
31848;SDS011;18414;59.352;18.152;2023-02-12T03:07:28;3.73;;;1.10;;
31848;SDS011;18414;59.352;18.152;2023-02-12T03:09:58;2.10;;;1.20;;
31848;SDS011;18414;59.352;18.152;2023-02-12T03:12:35;4.03;;;1.23;;
31848;SDS011;18414;59.352;18.152;2023-02-12T03:15:05;3.77;;;1.33;;
31848;SDS011;18414;59.352;18.152;2023-02-12T03:17:34;5.57;;;1.43;;
31848;SDS011;18414;59.352;18.152;2023-02-12T03:20:04;5.23;;;1.17;;
31848;SDS011;18414;59.352;18.152;2023-02-12T03:22:33;3.33;;;1.10;;
31848;SDS011;18414;59.352;18.152;2023-02-12T03:25:20;3.50;;;1.20;;
31848;SDS011;18414;59.352;18.152;2023-02-12T03:27:57;3.70;;;1.10;;
31848;SDS011;18414;59.352;18.152;2023-02-12T03:30:29;1.77;;;1.17;;
31848;SDS011;18414;59.352;18.152;2023-02-12T03:33:09;2.53;;;1.27;;
31848;SDS011;18414;59.352;18.152;2023-02-12T03:35:58;1.77;;;1.10;;
31848;SDS011;18414;59.352;18.152;2023-02-12T03:38:40;2.90;;;1.10;;
31848;SDS011;18414;59.352;18.152;2023-02-12T03:47:04;1.37;;;1.23;;
31848;SDS011;18414;59.352;18.152;2023-02-12T03:52:25;2.70;;;1.10;;
31848;SDS011;18414;59.352;18.152;2023-02-12T03:54:50;2.03;;;1.00;;
31848;SDS011;18414;59.352;18.152;2023-02-12T03:57:17;2.97;;;1.07;;
31848;SDS011;18414;59.352;18.152;2023-02-12T03:59:45;4.53;;;1.33;;
31848;SDS011;18414;59.352;18.152;2023-02-12T04:02:12;2.70;;;1.37;;
31848;SDS011;18414;59.352;18.152;2023-02-12T04:04:39;2.60;;;1.07;;
31848;SDS011;18414;59.352;18.152;2023-02-12T04:07:04;4.20;;;1.30;;
31848;SDS011;18414;59.352;18.152;2023-02-12T04:09:30;2.47;;;1.23;;
31848;SDS011;18414;59.352;18.152;2023-02-12T04:17:49;2.43;;;1.40;;
31848;SDS011;18414;59.352;18.152;2023-02-12T04:26:22;2.60;;;1.10;;
31848;SDS011;18414;59.352;18.152;2023-02-12T04:32:00;3.93;;;1.23;;
31848;SDS011;18414;59.352;18.152;2023-02-12T04:34:33;2.23;;;1.10;;
31848;SDS011;18414;59.352;18.152;2023-02-12T04:37:05;5.37;;;1.40;;
31848;SDS011;18414;59.352;18.152;2023-02-12T04:39:35;4.10;;;1.60;;
31848;SDS011;18414;59.352;18.152;2023-02-12T04:42:01;1.83;;;1.10;;
31848;SDS011;18414;59.352;18.152;2023-02-12T04:44:28;2.50;;;1.30;;
31848;SDS011;18414;59.352;18.152;2023-02-12T04:46:55;4.50;;;1.50;;
31848;SDS011;18414;59.352;18.152;2023-02-12T04:49:21;2.10;;;1.10;;
31848;SDS011;18414;59.352;18.152;2023-02-12T04:51:47;4.50;;;1.20;;
31848;SDS011;18414;59.352;18.152;2023-02-12T04:54:16;2.43;;;1.03;;
31848;SDS011;18414;59.352;18.152;2023-02-12T04:56:43;3.53;;;1.30;;
31848;SDS011;18414;59.352;18.152;2023-02-12T04:59:09;3.53;;;1.33;;
31848;SDS011;18414;59.352;18.152;2023-02-12T05:01:35;4.10;;;1.23;;
31848;SDS011;18414;59.352;18.152;2023-02-12T05:04:01;2.47;;;1.40;;
31848;SDS011;18414;59.352;18.152;2023-02-12T05:06:27;3.83;;;1.20;;
31848;SDS011;18414;59.352;18.152;2023-02-12T05:08:54;3.07;;;1.30;;
31848;SDS011;18414;59.352;18.152;2023-02-12T05:11:20;3.17;;;1.30;;
31848;SDS011;18414;59.352;18.152;2023-02-12T05:13:49;4.73;;;1.67;;
31848;SDS011;18414;59.352;18.152;2023-02-12T05:16:15;2.20;;;1.27;;
31848;SDS011;18414;59.352;18.152;2023-02-12T05:18:41;2.90;;;1.53;;
31848;SDS011;18414;59.352;18.152;2023-02-12T05:21:06;1.93;;;1.33;;
31848;SDS011;18414;59.352;18.152;2023-02-12T05:23:33;3.37;;;1.20;;
31848;SDS011;18414;59.352;18.152;2023-02-12T05:26:00;4.10;;;1.30;;
31848;SDS011;18414;59.352;18.152;2023-02-12T05:28:27;3.97;;;1.40;;
31848;SDS011;18414;59.352;18.152;2023-02-12T05:30:52;2.60;;;1.43;;
31848;SDS011;18414;59.352;18.152;2023-02-12T05:33:18;3.07;;;1.37;;
31848;SDS011;18414;59.352;18.152;2023-02-12T05:35:43;2.37;;;1.20;;
31848;SDS011;18414;59.352;18.152;2023-02-12T05:38:08;3.80;;;1.37;;
31848;SDS011;18414;59.352;18.152;2023-02-12T05:40:34;2.33;;;1.20;;
31848;SDS011;18414;59.352;18.152;2023-02-12T05:43:00;2.57;;;1.20;;
31848;SDS011;18414;59.352;18.152;2023-02-12T05:45:25;3.70;;;1.33;;
31848;SDS011;18414;59.352;18.152;2023-02-12T05:47:54;5.30;;;1.30;;
31848;SDS011;18414;59.352;18.152;2023-02-12T05:50:20;2.40;;;1.20;;
31848;SDS011;18414;59.352;18.152;2023-02-12T05:52:46;1.77;;;1.20;;
31848;SDS011;18414;59.352;18.152;2023-02-12T05:55:11;4.90;;;1.20;;
31848;SDS011;18414;59.352;18.152;2023-02-12T05:57:37;2.47;;;1.30;;
31848;SDS011;18414;59.352;18.152;2023-02-12T06:00:03;4.30;;;1.50;;
31848;SDS011;18414;59.352;18.152;2023-02-12T06:02:29;2.40;;;1.27;;
31848;SDS011;18414;59.352;18.152;2023-02-12T06:04:54;3.73;;;1.13;;
31848;SDS011;18414;59.352;18.152;2023-02-12T06:07:20;3.23;;;1.70;;
31848;SDS011;18414;59.352;18.152;2023-02-12T06:09:45;2.17;;;1.27;;
31848;SDS011;18414;59.352;18.152;2023-02-12T06:12:10;2.20;;;1.50;;
31848;SDS011;18414;59.352;18.152;2023-02-12T06:14:36;2.43;;;1.40;;
31848;SDS011;18414;59.352;18.152;2023-02-12T06:17:01;2.20;;;1.20;;
31848;SDS011;18414;59.352;18.152;2023-02-12T06:19:26;3.10;;;1.10;;
31848;SDS011;18414;59.352;18.152;2023-02-12T06:21:52;4.27;;;1.30;;
31848;SDS011;18414;59.352;18.152;2023-02-12T06:24:17;2.80;;;1.50;;
31848;SDS011;18414;59.352;18.152;2023-02-12T06:26:43;2.57;;;1.20;;
31848;SDS011;18414;59.352;18.152;2023-02-12T06:29:08;2.70;;;1.10;;
31848;SDS011;18414;59.352;18.152;2023-02-12T06:31:35;2.80;;;1.10;;
31848;SDS011;18414;59.352;18.152;2023-02-12T06:34:02;1.60;;;1.10;;
31848;SDS011;18414;59.352;18.152;2023-02-12T06:36:29;2.57;;;1.00;;
31848;SDS011;18414;59.352;18.152;2023-02-12T06:38:55;1.73;;;1.07;;
31848;SDS011;18414;59.352;18.152;2023-02-12T06:41:20;2.63;;;1.20;;
31848;SDS011;18414;59.352;18.152;2023-02-12T06:43:46;3.80;;;1.33;;
31848;SDS011;18414;59.352;18.152;2023-02-12T06:46:12;5.33;;;1.53;;
31848;SDS011;18414;59.352;18.152;2023-02-12T06:48:37;2.47;;;1.07;;
31848;SDS011;18414;59.352;18.152;2023-02-12T06:51:06;6.33;;;1.20;;
31848;SDS011;18414;59.352;18.152;2023-02-12T06:53:35;3.23;;;1.20;;
31848;SDS011;18414;59.352;18.152;2023-02-12T06:56:02;3.43;;;1.40;;
31848;SDS011;18414;59.352;18.152;2023-02-12T06:58:28;2.83;;;1.20;;
31848;SDS011;18414;59.352;18.152;2023-02-12T07:00:54;2.97;;;1.10;;
31848;SDS011;18414;59.352;18.152;2023-02-12T07:03:19;4.77;;;1.30;;
31848;SDS011;18414;59.352;18.152;2023-02-12T07:05:44;3.23;;;1.40;;
31848;SDS011;18414;59.352;18.152;2023-02-12T07:08:12;2.83;;;1.50;;
31848;SDS011;18414;59.352;18.152;2023-02-12T07:10:37;3.47;;;1.63;;
31848;SDS011;18414;59.352;18.152;2023-02-12T07:13:03;4.07;;;1.30;;
31848;SDS011;18414;59.352;18.152;2023-02-12T07:15:29;2.47;;;1.00;;
31848;SDS011;18414;59.352;18.152;2023-02-12T07:17:54;4.27;;;1.30;;
31848;SDS011;18414;59.352;18.152;2023-02-12T07:20:20;3.17;;;1.20;;
31848;SDS011;18414;59.352;18.152;2023-02-12T07:22:45;5.47;;;1.50;;
31848;SDS011;18414;59.352;18.152;2023-02-12T07:25:10;4.93;;;1.10;;
31848;SDS011;18414;59.352;18.152;2023-02-12T07:27:36;2.97;;;1.47;;
31848;SDS011;18414;59.352;18.152;2023-02-12T07:30:02;3.90;;;1.33;;
31848;SDS011;18414;59.352;18.152;2023-02-12T07:32:30;4.50;;;1.43;;
31848;SDS011;18414;59.352;18.152;2023-02-12T07:34:56;3.67;;;1.30;;
31848;SDS011;18414;59.352;18.152;2023-02-12T07:37:21;4.60;;;1.30;;
31848;SDS011;18414;59.352;18.152;2023-02-12T07:39:47;2.60;;;1.50;;
31848;SDS011;18414;59.352;18.152;2023-02-12T07:42:13;3.90;;;1.20;;
31848;SDS011;18414;59.352;18.152;2023-02-12T07:44:39;3.53;;;1.50;;
31848;SDS011;18414;59.352;18.152;2023-02-12T07:47:04;4.93;;;1.30;;
31848;SDS011;18414;59.352;18.152;2023-02-12T07:49:30;2.60;;;1.40;;
31848;SDS011;18414;59.352;18.152;2023-02-12T07:51:55;4.00;;;1.60;;
31848;SDS011;18414;59.352;18.152;2023-02-12T07:54:20;2.90;;;1.70;;
31848;SDS011;18414;59.352;18.152;2023-02-12T07:56:46;6.87;;;1.63;;
31848;SDS011;18414;59.352;18.152;2023-02-12T07:59:12;5.93;;;1.50;;
31848;SDS011;18414;59.352;18.152;2023-02-12T08:01:40;4.33;;;1.47;;
31848;SDS011;18414;59.352;18.152;2023-02-12T08:04:13;2.53;;;1.20;;
31848;SDS011;18414;59.352;18.152;2023-02-12T08:06:44;4.10;;;1.40;;
31848;SDS011;18414;59.352;18.152;2023-02-12T08:09:12;5.37;;;1.70;;
31848;SDS011;18414;59.352;18.152;2023-02-12T08:11:40;5.53;;;1.90;;
31848;SDS011;18414;59.352;18.152;2023-02-12T08:14:06;4.80;;;1.83;;
31848;SDS011;18414;59.352;18.152;2023-02-12T08:16:34;6.90;;;2.27;;
31848;SDS011;18414;59.352;18.152;2023-02-12T08:19:01;3.40;;;1.60;;
31848;SDS011;18414;59.352;18.152;2023-02-12T08:21:27;3.70;;;1.57;;
31848;SDS011;18414;59.352;18.152;2023-02-12T08:23:53;8.10;;;1.90;;
31848;SDS011;18414;59.352;18.152;2023-02-12T08:26:20;5.47;;;1.80;;
31848;SDS011;18414;59.352;18.152;2023-02-12T08:28:47;8.50;;;1.80;;
31848;SDS011;18414;59.352;18.152;2023-02-12T08:31:18;4.33;;;1.60;;
31848;SDS011;18414;59.352;18.152;2023-02-12T08:33:46;4.40;;;1.53;;
31848;SDS011;18414;59.352;18.152;2023-02-12T08:36:13;4.83;;;1.80;;
31848;SDS011;18414;59.352;18.152;2023-02-12T08:38:41;4.97;;;1.70;;
31848;SDS011;18414;59.352;18.152;2023-02-12T08:41:11;5.90;;;1.80;;
31848;SDS011;18414;59.352;18.152;2023-02-12T08:43:39;5.47;;;2.00;;
31848;SDS011;18414;59.352;18.152;2023-02-12T08:46:15;5.67;;;1.73;;
31848;SDS011;18414;59.352;18.152;2023-02-12T08:48:41;7.77;;;1.90;;
31848;SDS011;18414;59.352;18.152;2023-02-12T08:53:34;5.63;;;1.70;;
31848;SDS011;18414;59.352;18.152;2023-02-12T08:55:59;6.97;;;1.63;;
31848;SDS011;18414;59.352;18.152;2023-02-12T08:58:25;8.23;;;1.77;;
31848;SDS011;18414;59.352;18.152;2023-02-12T09:00:50;5.13;;;1.43;;
31848;SDS011;18414;59.352;18.152;2023-02-12T09:03:16;5.00;;;2.20;;
31848;SDS011;18414;59.352;18.152;2023-02-12T09:05:41;7.40;;;1.77;;
31848;SDS011;18414;59.352;18.152;2023-02-12T09:08:07;5.83;;;1.97;;
31848;SDS011;18414;59.352;18.152;2023-02-12T09:10:33;5.17;;;1.80;;
31848;SDS011;18414;59.352;18.152;2023-02-12T09:12:59;5.43;;;1.70;;
31848;SDS011;18414;59.352;18.152;2023-02-12T09:15:24;10.40;;;1.93;;
31848;SDS011;18414;59.352;18.152;2023-02-12T09:17:49;5.83;;;1.90;;
31848;SDS011;18414;59.352;18.152;2023-02-12T09:20:14;3.53;;;1.87;;
31848;SDS011;18414;59.352;18.152;2023-02-12T09:22:40;7.23;;;2.03;;
31848;SDS011;18414;59.352;18.152;2023-02-12T09:25:05;5.50;;;2.03;;
31848;SDS011;18414;59.352;18.152;2023-02-12T09:27:31;10.80;;;2.50;;
31848;SDS011;18414;59.352;18.152;2023-02-12T09:29:56;7.47;;;1.90;;
31848;SDS011;18414;59.352;18.152;2023-02-12T09:32:21;9.43;;;2.17;;
31848;SDS011;18414;59.352;18.152;2023-02-12T09:34:47;8.20;;;2.00;;
31848;SDS011;18414;59.352;18.152;2023-02-12T09:37:12;9.00;;;2.20;;
31848;SDS011;18414;59.352;18.152;2023-02-12T09:39:37;6.83;;;2.20;;
31848;SDS011;18414;59.352;18.152;2023-02-12T09:42:37;6.33;;;2.00;;
31848;SDS011;18414;59.352;18.152;2023-02-12T09:48:27;6.90;;;1.87;;
31848;SDS011;18414;59.352;18.152;2023-02-12T09:53:28;5.60;;;1.93;;
31848;SDS011;18414;59.352;18.152;2023-02-12T09:55:54;8.90;;;2.23;;
31848;SDS011;18414;59.352;18.152;2023-02-12T09:58:33;8.40;;;2.33;;
31848;SDS011;18414;59.352;18.152;2023-02-12T10:01:01;7.37;;;2.07;;
31848;SDS011;18414;59.352;18.152;2023-02-12T10:03:35;6.67;;;2.30;;
31848;SDS011;18414;59.352;18.152;2023-02-12T10:06:01;8.00;;;2.40;;
31848;SDS011;18414;59.352;18.152;2023-02-12T10:14:28;8.77;;;2.57;;
31848;SDS011;18414;59.352;18.152;2023-02-12T10:20:32;6.37;;;2.30;;
31848;SDS011;18414;59.352;18.152;2023-02-12T10:23:52;6.93;;;2.30;;
31848;SDS011;18414;59.352;18.152;2023-02-12T10:28:47;8.50;;;2.30;;
31848;SDS011;18414;59.352;18.152;2023-02-12T10:31:20;8.20;;;2.40;;
31848;SDS011;18414;59.352;18.152;2023-02-12T10:33:53;7.80;;;2.57;;
31848;SDS011;18414;59.352;18.152;2023-02-12T10:36:32;7.20;;;2.40;;
31848;SDS011;18414;59.352;18.152;2023-02-12T10:39:06;6.17;;;2.20;;
31848;SDS011;18414;59.352;18.152;2023-02-12T10:41:37;7.10;;;2.50;;
31848;SDS011;18414;59.352;18.152;2023-02-12T10:44:08;8.10;;;2.30;;
31848;SDS011;18414;59.352;18.152;2023-02-12T10:46:35;6.70;;;2.27;;
31848;SDS011;18414;59.352;18.152;2023-02-12T10:49:00;10.83;;;2.33;;
31848;SDS011;18414;59.352;18.152;2023-02-12T10:54:32;5.50;;;2.00;;
31848;SDS011;18414;59.352;18.152;2023-02-12T10:57:06;9.07;;;2.37;;
31848;SDS011;18414;59.352;18.152;2023-02-12T10:59:34;7.27;;;2.40;;
31848;SDS011;18414;59.352;18.152;2023-02-12T11:02:00;7.57;;;2.40;;
31848;SDS011;18414;59.352;18.152;2023-02-12T11:04:27;7.70;;;2.23;;
31848;SDS011;18414;59.352;18.152;2023-02-12T11:07:05;14.27;;;2.73;;
31848;SDS011;18414;59.352;18.152;2023-02-12T11:09:35;8.50;;;2.30;;
31848;SDS011;18414;59.352;18.152;2023-02-12T11:12:19;9.87;;;2.83;;
31848;SDS011;18414;59.352;18.152;2023-02-12T11:14:51;7.80;;;2.67;;
31848;SDS011;18414;59.352;18.152;2023-02-12T11:17:44;12.03;;;2.93;;
31848;SDS011;18414;59.352;18.152;2023-02-12T11:22:55;6.30;;;2.10;;
31848;SDS011;18414;59.352;18.152;2023-02-12T11:25:23;9.63;;;2.87;;
31848;SDS011;18414;59.352;18.152;2023-02-12T11:27:58;7.53;;;2.63;;
31848;SDS011;18414;59.352;18.152;2023-02-12T11:30:53;8.97;;;2.60;;
31848;SDS011;18414;59.352;18.152;2023-02-12T11:36:04;14.37;;;2.77;;
31848;SDS011;18414;59.352;18.152;2023-02-12T11:38:39;12.37;;;2.83;;
31848;SDS011;18414;59.352;18.152;2023-02-12T11:44:09;9.63;;;2.40;;
31848;SDS011;18414;59.352;18.152;2023-02-12T11:46:36;8.37;;;2.50;;
31848;SDS011;18414;59.352;18.152;2023-02-12T11:49:03;7.43;;;2.63;;
31848;SDS011;18414;59.352;18.152;2023-02-12T11:51:29;7.87;;;2.40;;
31848;SDS011;18414;59.352;18.152;2023-02-12T11:53:59;8.97;;;2.83;;
31848;SDS011;18414;59.352;18.152;2023-02-12T11:56:38;9.33;;;2.60;;
31848;SDS011;18414;59.352;18.152;2023-02-12T11:59:10;12.03;;;3.20;;
31848;SDS011;18414;59.352;18.152;2023-02-12T12:01:42;13.27;;;3.27;;
31848;SDS011;18414;59.352;18.152;2023-02-12T12:04:08;7.23;;;2.20;;
31848;SDS011;18414;59.352;18.152;2023-02-12T12:06:47;9.77;;;2.70;;
31848;SDS011;18414;59.352;18.152;2023-02-12T12:09:19;9.93;;;2.67;;
31848;SDS011;18414;59.352;18.152;2023-02-12T12:14:32;7.70;;;2.53;;
31848;SDS011;18414;59.352;18.152;2023-02-12T12:17:20;7.00;;;2.17;;
31848;SDS011;18414;59.352;18.152;2023-02-12T12:20:13;8.63;;;2.60;;
31848;SDS011;18414;59.352;18.152;2023-02-12T12:31:09;9.77;;;2.70;;
31848;SDS011;18414;59.352;18.152;2023-02-12T12:33:39;6.50;;;2.43;;
31848;SDS011;18414;59.352;18.152;2023-02-12T12:49:38;9.00;;;2.70;;
31848;SDS011;18414;59.352;18.152;2023-02-12T12:52:11;10.07;;;2.83;;
31848;SDS011;18414;59.352;18.152;2023-02-12T12:57:38;7.77;;;2.70;;
31848;SDS011;18414;59.352;18.152;2023-02-12T13:03:00;9.20;;;2.27;;
31848;SDS011;18414;59.352;18.152;2023-02-12T13:11:27;12.07;;;3.07;;
31848;SDS011;18414;59.352;18.152;2023-02-12T13:14:02;10.37;;;2.60;;
31848;SDS011;18414;59.352;18.152;2023-02-12T13:16:43;9.23;;;2.70;;
31848;SDS011;18414;59.352;18.152;2023-02-12T13:27:13;13.27;;;2.90;;
31848;SDS011;18414;59.352;18.152;2023-02-12T13:29:43;9.30;;;2.67;;
31848;SDS011;18414;59.352;18.152;2023-02-12T13:32:24;9.07;;;2.93;;
31848;SDS011;18414;59.352;18.152;2023-02-12T13:34:53;9.80;;;2.67;;
31848;SDS011;18414;59.352;18.152;2023-02-12T13:39:59;12.37;;;2.53;;
31848;SDS011;18414;59.352;18.152;2023-02-12T13:42:33;12.43;;;3.17;;
31848;SDS011;18414;59.352;18.152;2023-02-12T13:53:14;11.97;;;3.13;;
31848;SDS011;18414;59.352;18.152;2023-02-12T14:01:04;11.13;;;2.80;;
31848;SDS011;18414;59.352;18.152;2023-02-12T14:03:32;7.97;;;2.50;;
31848;SDS011;18414;59.352;18.152;2023-02-12T14:06:16;9.63;;;3.20;;
31848;SDS011;18414;59.352;18.152;2023-02-12T14:08:51;10.10;;;2.80;;
31848;SDS011;18414;59.352;18.152;2023-02-12T14:11:21;9.07;;;2.80;;
31848;SDS011;18414;59.352;18.152;2023-02-12T14:13:55;14.83;;;3.10;;
31848;SDS011;18414;59.352;18.152;2023-02-12T14:21:56;9.07;;;2.57;;
31848;SDS011;18414;59.352;18.152;2023-02-12T14:27:00;9.33;;;2.87;;
31848;SDS011;18414;59.352;18.152;2023-02-12T14:29:27;11.50;;;3.30;;
31848;SDS011;18414;59.352;18.152;2023-02-12T14:31:52;11.93;;;3.27;;
31848;SDS011;18414;59.352;18.152;2023-02-12T14:36:46;8.00;;;2.77;;
31848;SDS011;18414;59.352;18.152;2023-02-12T14:41:45;10.53;;;3.40;;
31848;SDS011;18414;59.352;18.152;2023-02-12T14:49:23;10.93;;;3.00;;
31848;SDS011;18414;59.352;18.152;2023-02-12T14:54:26;8.70;;;2.83;;
31848;SDS011;18414;59.352;18.152;2023-02-12T14:56:53;9.87;;;2.57;;
31848;SDS011;18414;59.352;18.152;2023-02-12T14:59:22;9.17;;;3.03;;
31848;SDS011;18414;59.352;18.152;2023-02-12T15:01:49;9.77;;;2.77;;
31848;SDS011;18414;59.352;18.152;2023-02-12T15:04:16;11.70;;;3.27;;
31848;SDS011;18414;59.352;18.152;2023-02-12T15:06:54;8.43;;;2.80;;
31848;SDS011;18414;59.352;18.152;2023-02-12T15:09:29;11.03;;;3.03;;
31848;SDS011;18414;59.352;18.152;2023-02-12T15:14:53;10.23;;;3.03;;
31848;SDS011;18414;59.352;18.152;2023-02-12T15:17:24;10.33;;;3.07;;
31848;SDS011;18414;59.352;18.152;2023-02-12T15:20:01;7.43;;;2.70;;
31848;SDS011;18414;59.352;18.152;2023-02-12T15:22:31;8.33;;;2.60;;
31848;SDS011;18414;59.352;18.152;2023-02-12T15:25:15;10.53;;;2.60;;
31848;SDS011;18414;59.352;18.152;2023-02-12T15:27:45;9.40;;;3.03;;
31848;SDS011;18414;59.352;18.152;2023-02-12T15:30:18;8.27;;;2.70;;
31848;SDS011;18414;59.352;18.152;2023-02-12T15:32:46;9.00;;;2.70;;
31848;SDS011;18414;59.352;18.152;2023-02-12T15:35:20;8.10;;;2.80;;
31848;SDS011;18414;59.352;18.152;2023-02-12T15:37:48;8.83;;;3.00;;
31848;SDS011;18414;59.352;18.152;2023-02-12T15:40:13;10.40;;;2.70;;
31848;SDS011;18414;59.352;18.152;2023-02-12T15:42:40;9.77;;;2.97;;
31848;SDS011;18414;59.352;18.152;2023-02-12T15:47:40;9.57;;;2.87;;
31848;SDS011;18414;59.352;18.152;2023-02-12T15:50:13;10.17;;;3.37;;
31848;SDS011;18414;59.352;18.152;2023-02-12T15:52:41;8.90;;;2.63;;
31848;SDS011;18414;59.352;18.152;2023-02-12T15:55:15;7.73;;;2.80;;
31848;SDS011;18414;59.352;18.152;2023-02-12T15:57:43;9.30;;;2.90;;
31848;SDS011;18414;59.352;18.152;2023-02-12T16:00:21;9.20;;;3.53;;
31848;SDS011;18414;59.352;18.152;2023-02-12T16:02:51;7.40;;;2.80;;
31848;SDS011;18414;59.352;18.152;2023-02-12T16:05:17;8.20;;;2.60;;
31848;SDS011;18414;59.352;18.152;2023-02-12T16:07:42;11.00;;;3.00;;
31848;SDS011;18414;59.352;18.152;2023-02-12T16:10:09;9.53;;;2.80;;
31848;SDS011;18414;59.352;18.152;2023-02-12T16:12:38;9.90;;;2.70;;
31848;SDS011;18414;59.352;18.152;2023-02-12T16:15:05;7.03;;;2.63;;
31848;SDS011;18414;59.352;18.152;2023-02-12T16:17:32;7.17;;;2.30;;
31848;SDS011;18414;59.352;18.152;2023-02-12T16:20:00;8.13;;;2.80;;
31848;SDS011;18414;59.352;18.152;2023-02-12T16:22:31;8.97;;;3.30;;
31848;SDS011;18414;59.352;18.152;2023-02-12T16:24:58;8.70;;;2.73;;
31848;SDS011;18414;59.352;18.152;2023-02-12T16:27:29;6.57;;;2.40;;
31848;SDS011;18414;59.352;18.152;2023-02-12T16:32:26;8.60;;;3.10;;
31848;SDS011;18414;59.352;18.152;2023-02-12T16:34:59;9.77;;;2.57;;
31848;SDS011;18414;59.352;18.152;2023-02-12T16:37:59;10.20;;;3.07;;
31848;SDS011;18414;59.352;18.152;2023-02-12T16:40:28;13.10;;;2.93;;
31848;SDS011;18414;59.352;18.152;2023-02-12T16:42:56;9.87;;;3.20;;
31848;SDS011;18414;59.352;18.152;2023-02-12T16:47:56;7.47;;;2.70;;
31848;SDS011;18414;59.352;18.152;2023-02-12T16:50:29;8.33;;;2.80;;
31848;SDS011;18414;59.352;18.152;2023-02-12T16:52:58;10.87;;;3.30;;
31848;SDS011;18414;59.352;18.152;2023-02-12T16:55:31;8.57;;;3.00;;
31848;SDS011;18414;59.352;18.152;2023-02-12T16:57:56;12.23;;;3.23;;
31848;SDS011;18414;59.352;18.152;2023-02-12T17:00:21;8.00;;;2.93;;
31848;SDS011;18414;59.352;18.152;2023-02-12T17:02:48;7.80;;;2.70;;
31848;SDS011;18414;59.352;18.152;2023-02-12T17:05:14;7.53;;;2.43;;
31848;SDS011;18414;59.352;18.152;2023-02-12T17:07:41;9.57;;;2.50;;
31848;SDS011;18414;59.352;18.152;2023-02-12T17:10:10;8.23;;;2.93;;
31848;SDS011;18414;59.352;18.152;2023-02-12T17:12:43;7.80;;;2.77;;
31848;SDS011;18414;59.352;18.152;2023-02-12T17:15:09;6.93;;;2.77;;
31848;SDS011;18414;59.352;18.152;2023-02-12T17:17:54;8.07;;;2.90;;
31848;SDS011;18414;59.352;18.152;2023-02-12T17:20:20;8.87;;;2.70;;
31848;SDS011;18414;59.352;18.152;2023-02-12T17:22:49;7.73;;;2.80;;
31848;SDS011;18414;59.352;18.152;2023-02-12T17:25:16;7.87;;;2.43;;
31848;SDS011;18414;59.352;18.152;2023-02-12T17:27:42;8.10;;;2.80;;
31848;SDS011;18414;59.352;18.152;2023-02-12T17:30:07;9.20;;;2.90;;
31848;SDS011;18414;59.352;18.152;2023-02-12T17:32:33;6.67;;;2.50;;
31848;SDS011;18414;59.352;18.152;2023-02-12T17:34:58;8.13;;;2.90;;